createdAt,value
2019-06-26T02:02:22.585Z,54.52
2019-06-26T02:03:22.573Z,54.32
2019-06-26T02:04:22.568Z,54.12
2019-06-26T02:05:22.557Z,54.44
2019-06-26T02:06:22.546Z,54.44
2019-06-26T02:07:22.535Z,54.54
2019-06-26T02:08:22.519Z,55.04
2019-06-26T02:09:22.519Z,55.24
2019-06-26T02:10:22.502Z,54.94
2019-06-26T02:11:22.487Z,54.94
2019-06-26T02:12:22.477Z,55.04
2019-06-26T02:13:22.467Z,55.14
2019-06-26T02:14:30.882Z,54.84
2019-06-26T02:15:46.923Z,54.94
2019-06-26T02:16:46.911Z,55.04
2019-06-26T02:17:46.910Z,54.94
2019-06-26T02:18:46.889Z,55.24
2019-06-26T02:19:46.884Z,55.43
2019-06-26T02:20:46.869Z,55.24
2019-06-26T02:21:46.857Z,55.66
2019-06-26T02:22:49.552Z,55.86
2019-06-26T02:23:46.836Z,55.56
2019-06-26T02:24:46.823Z,55.46
2019-06-26T02:25:46.812Z,55.56
2019-06-26T02:26:46.804Z,55.66
2019-06-26T02:27:46.790Z,55.76
2019-06-26T02:28:46.779Z,55.96
2019-06-26T02:29:46.769Z,56.06
2019-06-26T02:30:46.759Z,55.86
2019-06-26T02:31:46.753Z,55.96
2019-06-26T02:32:46.741Z,55.96
2019-06-26T02:33:46.725Z,55.96
2019-06-26T02:34:46.718Z,56.06
2019-06-26T02:35:46.707Z,56.45
2019-06-26T02:36:46.696Z,56.55
2019-06-26T02:37:46.682Z,56.45
2019-06-26T02:38:46.679Z,56.75
2019-06-26T02:39:46.665Z,56.55
2019-06-26T02:40:46.655Z,56.68
2019-06-26T02:41:46.648Z,56.65
2019-06-26T02:42:46.627Z,56.68
2019-06-26T02:43:46.621Z,56.85
2019-06-26T02:44:53.478Z,56.88
2019-06-26T02:45:47.615Z,56.98
2019-06-26T02:46:46.588Z,56.78
2019-06-26T02:47:46.581Z,56.85
2019-06-26T02:48:46.562Z,57.08
2019-06-26T02:49:46.549Z,57.08
2019-06-26T02:50:46.538Z,57.18
2019-06-26T02:51:46.532Z,57.08
2019-06-26T02:52:46.518Z,57.15
2019-06-26T02:53:46.503Z,57.08
2019-06-26T02:54:46.514Z,56.75
2019-06-26T02:55:46.506Z,57.08
2019-06-26T02:56:46.515Z,56.95
2019-06-26T02:57:46.515Z,56.98
2019-06-26T02:58:46.456Z,56.98
2019-06-26T02:59:46.462Z,57.08
2019-06-26T03:00:46.461Z,57.18
2019-06-26T03:01:46.471Z,56.98
2019-06-26T03:02:46.406Z,56.55
2019-06-26T03:03:46.408Z,56.78
2019-06-26T03:04:46.382Z,57.08
2019-06-26T03:05:46.373Z,57.08
2019-06-26T03:06:46.365Z,56.95
2019-06-26T03:07:46.350Z,57.18
2019-06-26T03:08:46.356Z,57.37
2019-06-26T03:09:46.330Z,57.15
2019-06-26T03:10:46.317Z,57.47
2019-06-26T03:11:46.306Z,57.58
2019-06-26T03:12:46.294Z,57.77
2019-06-26T03:13:46.284Z,57.94
2019-06-26T03:14:46.274Z,58.07
2019-06-26T03:15:49.518Z,57.75
2019-06-26T03:16:46.251Z,57.58
2019-06-26T03:17:55.314Z,57.37
2019-06-26T03:19:10.707Z,57.75
2019-06-26T03:20:10.692Z,57.35
2019-06-26T03:21:10.683Z,57.55
2019-06-26T03:22:10.668Z,57.55
2019-06-26T03:23:10.656Z,57.25
2019-06-26T03:24:10.648Z,57.64
2019-06-26T03:25:10.634Z,57.45
2019-06-26T03:26:10.627Z,58.14
2019-06-26T03:27:10.612Z,57.94
2019-06-26T03:28:10.603Z,58.04
2019-06-26T03:29:10.595Z,57.72
2019-06-26T03:30:10.581Z,57.92
2019-06-26T03:31:10.567Z,58.02
2019-06-26T03:32:10.562Z,58.02
2019-06-26T03:33:10.548Z,57.92
2019-06-26T03:34:10.537Z,57.72
2019-06-26T03:35:10.532Z,58.21
2019-06-26T03:36:10.525Z,58.02
2019-06-26T03:37:10.499Z,58.02
2019-06-26T03:38:10.497Z,58.21
2019-06-26T03:39:10.478Z,58.04
2019-06-26T03:40:10.465Z,58.24
2019-06-26T03:41:10.464Z,58.04
2019-06-26T03:42:10.447Z,58.14
2019-06-26T03:43:10.447Z,58.31
2019-06-26T03:44:10.428Z,57.92
2019-06-26T03:45:24.523Z,57.94
2019-06-26T03:46:11.420Z,58.24
2019-06-26T03:47:10.388Z,57.94
2019-06-26T03:48:10.376Z,58.44
2019-06-26T03:49:10.366Z,58.14
2019-06-26T03:50:10.355Z,58.54
2019-06-26T03:51:13.763Z,58.71
2019-06-26T03:52:10.333Z,58.54
2019-06-26T03:53:10.321Z,58.34
2019-06-26T03:54:10.308Z,58.74
2019-06-26T03:55:10.299Z,58.34
2019-06-26T03:56:10.286Z,58.02
2019-06-26T03:57:10.279Z,58.34
2019-06-26T03:58:10.265Z,58.02
2019-06-26T03:59:10.258Z,57.72
2019-06-26T04:00:10.245Z,57.81
2019-06-26T04:01:10.238Z,57.69
2019-06-26T04:02:10.242Z,57.19
2019-06-26T04:03:10.210Z,57.00
2019-06-26T04:04:10.199Z,56.77
2019-06-26T04:05:10.194Z,56.64
2019-06-26T04:06:10.173Z,56.54
2019-06-26T04:07:10.162Z,56.34
2019-06-26T04:08:10.155Z,56.05
2019-06-26T04:09:10.143Z,55.82
2019-06-26T04:10:10.135Z,55.82
2019-06-26T04:11:10.127Z,55.85
2019-06-26T04:12:10.123Z,55.85
2019-06-26T04:13:10.099Z,56.05
2019-06-26T04:14:10.092Z,55.95
2019-06-26T04:15:10.076Z,56.34
2019-06-26T04:16:10.105Z,56.54
2019-06-26T04:17:10.054Z,56.45
2019-06-26T04:18:10.052Z,56.54
2019-06-26T04:19:10.034Z,56.64
2019-06-26T04:20:10.023Z,56.45
2019-06-26T04:21:10.013Z,56.34
2019-06-26T04:22:09.996Z,56.05
2019-06-26T04:23:09.986Z,56.54
2019-06-26T04:24:09.975Z,56.45
2019-06-26T04:25:09.965Z,56.45
2019-06-26T04:26:09.957Z,56.64
2019-06-26T04:27:09.943Z,56.51
2019-06-26T04:28:09.938Z,56.22
2019-06-26T04:29:09.920Z,56.09
2019-06-26T04:30:09.927Z,55.47
2019-06-26T04:31:09.906Z,55.08
2019-06-26T04:32:09.892Z,54.85
2019-06-26T04:33:09.877Z,54.13
2019-06-26T04:34:09.867Z,53.74
2019-06-26T04:35:09.857Z,53.94
2019-06-26T04:36:09.843Z,53.61
2019-06-26T04:37:09.832Z,53.12
2019-06-26T04:38:09.825Z,52.90
2019-06-26T04:39:09.811Z,52.38
2019-06-26T04:40:09.800Z,52.55
2019-06-26T04:41:09.789Z,52.65
2019-06-26T04:42:09.783Z,52.33
2019-06-26T04:43:09.772Z,51.84
2019-06-26T04:44:09.763Z,51.71
2019-06-26T04:45:09.749Z,51.20
2019-06-26T04:46:09.741Z,50.23
2019-06-26T04:47:09.745Z,50.63
2019-06-26T04:48:09.713Z,51.30
2019-06-26T04:49:09.703Z,50.80
2019-06-26T04:50:09.691Z,51.09
2019-06-26T04:51:09.681Z,50.11
2019-06-26T04:52:09.677Z,51.32
2019-06-26T04:53:09.667Z,51.71
2019-06-26T04:54:09.650Z,51.81
2019-06-26T04:55:09.640Z,52.42
2019-06-26T04:56:09.626Z,52.53
2019-06-26T04:57:09.646Z,52.35
2019-06-26T04:58:09.604Z,52.35
2019-06-26T04:59:09.597Z,52.85
2019-06-26T05:00:09.592Z,52.53
2019-06-26T05:01:09.572Z,52.40
2019-06-26T05:02:09.563Z,51.88
2019-06-26T05:03:09.555Z,50.39
2019-06-26T05:04:09.546Z,50.26
2019-06-26T05:05:09.528Z,49.74
2019-06-26T05:06:09.522Z,49.74
2019-06-26T05:07:09.518Z,49.43
2019-06-26T05:08:09.496Z,48.59
2019-06-26T05:09:09.489Z,48.10
2019-06-26T05:10:09.475Z,47.88
2019-06-26T05:11:12.520Z,47.49
2019-06-26T05:12:09.464Z,47.47
2019-06-26T05:13:09.441Z,46.97
2019-06-26T05:14:09.437Z,46.56
2019-06-26T05:15:09.427Z,46.36
2019-06-26T05:16:15.026Z,46.24
2019-06-26T05:17:33.870Z,46.24
2019-06-26T05:18:33.860Z,45.95
2019-06-26T05:19:33.855Z,45.83
2019-06-26T05:20:33.848Z,45.44
2019-06-26T05:21:33.827Z,45.32
2019-06-26T05:22:33.817Z,45.34
2019-06-26T05:23:33.808Z,45.85
2019-06-26T05:24:33.794Z,45.83
2019-06-26T05:25:33.788Z,45.34
2019-06-26T05:26:33.772Z,46.36
2019-06-26T05:27:33.764Z,47.58
2019-06-26T05:28:33.754Z,48.59
2019-06-26T05:29:33.742Z,49.20
2019-06-26T05:30:33.740Z,48.20
2019-06-26T05:31:33.722Z,47.57
2019-06-26T05:32:33.712Z,47.15
2019-06-26T05:33:33.707Z,46.75
2019-06-26T05:34:33.691Z,46.24
2019-06-26T05:35:35.221Z,46.95
2019-06-26T05:36:33.666Z,48.05
2019-06-26T05:37:33.655Z,47.47
2019-06-26T05:38:33.654Z,47.86
2019-06-26T05:39:33.637Z,47.64
2019-06-26T05:40:33.633Z,46.93
2019-06-26T05:41:33.619Z,45.73
2019-06-26T05:42:33.604Z,45.10
2019-06-26T05:43:33.597Z,44.20
2019-06-26T05:44:33.581Z,44.28
2019-06-26T05:45:33.572Z,43.67
2019-06-26T05:46:33.561Z,43.26
2019-06-26T05:47:33.550Z,42.67
2019-06-26T05:48:33.540Z,43.45
2019-06-26T05:49:33.536Z,42.87
2019-06-26T05:50:33.518Z,42.84
2019-06-26T05:51:33.514Z,42.14
2019-06-26T05:52:33.501Z,41.63
2019-06-26T05:53:33.485Z,41.71
2019-06-26T05:54:33.516Z,41.00
2019-06-26T05:55:33.473Z,40.89
2019-06-26T05:56:33.453Z,40.40
2019-06-26T05:57:33.444Z,40.50
2019-06-26T05:58:33.433Z,41.20
2019-06-26T05:59:33.434Z,41.41
2019-06-26T06:00:33.413Z,41.12
2019-06-26T06:01:33.402Z,41.92
2019-06-26T06:02:33.398Z,42.41
2019-06-26T06:03:33.385Z,42.12
2019-06-26T06:04:33.367Z,41.41
2019-06-26T06:05:33.362Z,41.00
2019-06-26T06:06:41.498Z,40.28
2019-06-26T06:07:57.816Z,40.27
2019-06-26T06:08:57.805Z,39.76
2019-06-26T06:09:57.789Z,39.27
2019-06-26T06:10:58.370Z,39.53
2019-06-26T06:11:57.770Z,38.83
2019-06-26T06:12:57.760Z,38.43
2019-06-26T06:13:57.755Z,38.43
2019-06-26T06:14:57.740Z,38.13
2019-06-26T06:15:57.731Z,37.74
2019-06-26T06:16:57.721Z,37.74
2019-06-26T06:17:57.705Z,38.40
2019-06-26T06:18:57.723Z,37.54
2019-06-26T06:19:57.685Z,37.93
2019-06-26T06:20:57.678Z,37.72
2019-06-26T06:21:57.664Z,37.54
2019-06-26T06:22:57.718Z,38.34
2019-06-26T06:23:57.641Z,38.22
2019-06-26T06:24:57.764Z,37.54
2019-06-26T06:25:57.619Z,38.01
2019-06-26T06:26:57.610Z,37.82
2019-06-26T06:27:57.605Z,37.60
2019-06-26T06:28:57.590Z,37.41
2019-06-26T06:29:57.581Z,37.03
2019-06-26T06:30:57.564Z,37.22
2019-06-26T06:31:57.557Z,37.01
2019-06-26T06:32:57.543Z,36.33
2019-06-26T06:33:57.534Z,37.04
2019-06-26T06:34:57.523Z,37.33
2019-06-26T06:35:57.524Z,36.63
2019-06-26T06:36:57.504Z,36.13
2019-06-26T06:37:57.496Z,36.62
2019-06-26T06:38:57.483Z,36.52
2019-06-26T06:39:57.499Z,36.21
2019-06-26T06:40:57.459Z,35.90
2019-06-26T06:41:57.458Z,36.08
2019-06-26T06:42:57.453Z,35.58
2019-06-26T06:43:57.428Z,35.16
2019-06-26T06:44:57.431Z,34.77
2019-06-26T06:45:57.406Z,34.17
2019-06-26T06:47:03.806Z,33.87
2019-06-26T06:48:21.867Z,33.75
2019-06-26T06:49:21.849Z,34.08
2019-06-26T06:50:21.840Z,34.46
2019-06-26T06:51:21.827Z,33.79
2019-06-26T06:52:21.820Z,34.16
2019-06-26T06:53:21.817Z,33.47
2019-06-26T06:54:21.798Z,34.24
2019-06-26T06:55:21.790Z,33.64
2019-06-26T06:56:21.779Z,34.13
2019-06-26T06:57:21.772Z,33.74
2019-06-26T06:58:21.779Z,32.18
2019-06-26T06:59:21.743Z,32.16
2019-06-26T07:00:21.738Z,32.44
2019-06-26T07:01:21.733Z,31.95
2019-06-26T07:02:21.720Z,32.64
2019-06-26T07:03:21.705Z,32.84
2019-06-26T07:04:21.692Z,32.55
2019-06-26T07:05:21.685Z,31.87
2019-06-26T07:06:21.671Z,32.45
2019-06-26T07:07:21.667Z,31.87
2019-06-26T07:08:21.651Z,32.05
2019-06-26T07:09:21.642Z,32.03
2019-06-26T07:10:21.630Z,31.15
2019-06-26T07:11:21.622Z,30.95
2019-06-26T07:12:21.611Z,30.93
2019-06-26T07:13:21.606Z,31.14
2019-06-26T07:14:21.595Z,31.43
2019-06-26T07:15:21.594Z,31.43
2019-06-26T07:16:21.573Z,30.93
2019-06-26T07:17:21.648Z,31.30
2019-06-26T07:18:21.552Z,30.93
2019-06-26T07:19:21.541Z,31.53
2019-06-26T07:20:21.533Z,31.84
2019-06-26T07:21:21.517Z,31.26
2019-06-26T07:22:21.508Z,30.98
2019-06-26T07:23:21.505Z,31.07
2019-06-26T07:24:21.488Z,31.64
2019-06-26T07:25:21.488Z,31.33
2019-06-26T07:26:21.495Z,31.03
2019-06-26T07:27:21.459Z,29.76
2019-06-26T07:28:21.524Z,29.94
2019-06-26T07:29:21.437Z,29.93
2019-06-26T07:30:21.425Z,29.44
2019-06-26T07:31:21.420Z,29.51
2019-06-26T07:32:21.404Z,29.04
2019-06-26T07:33:21.394Z,28.73
2019-06-26T07:34:21.384Z,28.63
2019-06-26T07:35:21.374Z,28.33
2019-06-26T07:36:21.363Z,28.81
2019-06-26T07:37:21.371Z,28.90
2019-06-26T07:38:21.354Z,29.08
2019-06-26T07:39:21.334Z,28.70
2019-06-26T07:40:21.323Z,27.84
2019-06-26T07:41:21.313Z,27.65
2019-06-26T07:42:21.304Z,27.92
2019-06-26T07:43:21.300Z,28.10
2019-06-26T07:44:21.284Z,27.72
2019-06-26T07:45:24.021Z,27.91
2019-06-26T07:46:21.270Z,27.91
2019-06-26T07:47:23.528Z,27.91
2019-06-26T07:48:22.263Z,27.91
2019-06-26T07:49:21.247Z,27.32
2019-06-26T07:50:21.225Z,27.03
2019-06-26T07:51:21.218Z,26.83
2019-06-26T07:52:21.207Z,27.21
2019-06-26T07:53:21.210Z,26.73
2019-06-26T07:54:21.185Z,27.41
2019-06-26T07:55:21.191Z,26.92
2019-06-26T07:56:21.163Z,27.01
2019-06-26T07:57:21.156Z,26.91
2019-06-26T07:58:21.147Z,26.62
2019-06-26T07:59:21.137Z,27.30
2019-06-26T08:00:21.134Z,26.62
2019-06-26T08:01:21.131Z,27.30
2019-06-26T08:02:21.105Z,27.01
2019-06-26T08:03:21.095Z,27.10
2019-06-26T08:04:21.087Z,26.91
2019-06-26T08:05:21.077Z,27.01
2019-06-26T08:06:21.064Z,26.72
2019-06-26T08:07:21.075Z,27.01
2019-06-26T08:08:21.314Z,26.33
2019-06-26T08:09:21.038Z,26.80
2019-06-26T08:10:21.044Z,26.71
2019-06-26T08:11:21.046Z,27.19
2019-06-26T08:12:21.008Z,27.28
2019-06-26T08:13:21.004Z,26.91
2019-06-26T08:14:21.121Z,27.50
2019-06-26T08:15:20.981Z,27.02
2019-06-26T08:16:20.970Z,26.82
2019-06-26T08:17:20.956Z,26.90
2019-06-26T08:18:20.949Z,27.19
2019-06-26T08:19:20.941Z,26.23
2019-06-26T08:20:20.927Z,26.98
2019-06-26T08:21:20.921Z,26.87
2019-06-26T08:22:20.919Z,25.92
2019-06-26T08:23:20.904Z,25.92
2019-06-26T08:24:20.893Z,26.38
2019-06-26T08:25:20.883Z,25.72
2019-06-26T08:26:20.873Z,26.67
2019-06-26T08:27:20.861Z,26.38
2019-06-26T08:28:20.870Z,26.59
2019-06-26T08:29:20.844Z,26.11
2019-06-26T08:30:20.881Z,26.67
2019-06-26T08:31:20.904Z,26.79
2019-06-26T08:32:20.891Z,26.82
2019-06-26T08:33:20.809Z,27.60
2019-06-26T08:34:20.818Z,27.52
2019-06-26T08:35:20.815Z,27.78
2019-06-26T08:36:20.774Z,27.21
2019-06-26T08:37:20.771Z,27.49
2019-06-26T08:38:20.754Z,26.61
2019-06-26T08:39:20.747Z,26.89
2019-06-26T08:40:20.751Z,26.98
2019-06-26T08:41:20.728Z,26.89
2019-06-26T08:42:20.716Z,27.28
2019-06-26T08:43:20.707Z,27.08
2019-06-26T08:44:20.697Z,26.78
2019-06-26T08:45:20.689Z,26.95
2019-06-26T08:46:20.677Z,25.90
2019-06-26T08:47:20.674Z,26.48
2019-06-26T08:48:38.386Z,26.18
2019-06-26T08:49:45.199Z,26.36
2019-06-26T08:50:45.149Z,26.29
2019-06-26T08:51:45.131Z,26.19
2019-06-26T08:52:45.092Z,26.19
2019-06-26T08:53:45.087Z,26.19
2019-06-26T08:54:45.072Z,26.28
2019-06-26T08:55:45.066Z,26.37
2019-06-26T08:56:45.076Z,26.56
2019-06-26T08:57:45.044Z,25.04
2019-06-26T08:58:45.041Z,26.55
2019-06-26T08:59:45.037Z,26.55
2019-06-26T09:00:45.015Z,26.37
2019-06-26T09:01:45.256Z,26.47
2019-06-26T09:02:44.997Z,25.31
2019-06-26T09:03:44.992Z,25.69
2019-06-26T09:04:44.977Z,25.50
2019-06-26T09:05:48.416Z,25.78
2019-06-26T09:06:44.966Z,25.88
2019-06-26T09:07:44.951Z,25.59
2019-06-26T09:08:44.946Z,25.69
2019-06-26T09:09:44.931Z,25.31
2019-06-26T09:10:45.424Z,25.01
2019-06-26T09:11:44.947Z,25.39
2019-06-26T09:12:44.906Z,25.47
2019-06-26T09:13:44.926Z,25.59
2019-06-26T09:14:44.885Z,26.41
2019-06-26T09:15:48.637Z,26.75
2019-06-26T09:16:44.872Z,27.75
2019-06-26T09:17:44.859Z,27.95
2019-06-26T09:18:44.851Z,27.86
2019-06-26T09:19:44.844Z,28.25
2019-06-26T09:20:44.831Z,29.61
2019-06-26T09:21:44.826Z,28.62
2019-06-26T09:22:44.819Z,27.14
2019-06-26T09:23:44.804Z,27.50
2019-06-26T09:24:44.795Z,26.53
2019-06-26T09:25:44.785Z,26.41
2019-06-26T09:26:44.775Z,26.39
2019-06-26T09:27:44.768Z,26.11
2019-06-26T09:28:44.759Z,26.48
2019-06-26T09:29:44.748Z,26.37
2019-06-26T09:30:44.819Z,26.28
2019-06-26T09:31:44.731Z,25.69
2019-06-26T09:32:44.768Z,25.29
2019-06-26T09:33:44.711Z,25.49
2019-06-26T09:34:44.702Z,25.49
2019-06-26T09:35:44.694Z,25.29
2019-06-26T09:36:44.684Z,25.67
2019-06-26T09:37:44.675Z,25.00
2019-06-26T09:38:44.667Z,24.13
2019-06-26T09:39:44.656Z,24.79
2019-06-26T09:40:44.647Z,24.12
2019-06-26T09:41:44.640Z,24.01
2019-06-26T09:42:44.633Z,23.82
2019-06-26T09:43:44.618Z,23.90
2019-06-26T09:44:44.623Z,23.90
2019-06-26T09:45:44.610Z,23.52
2019-06-26T09:46:44.609Z,23.61
2019-06-26T09:47:44.579Z,23.89
2019-06-26T09:48:52.876Z,23.32
2019-06-26T09:50:09.034Z,23.42
2019-06-26T09:51:09.024Z,23.52
2019-06-26T09:52:09.013Z,24.00
2019-06-26T09:53:09.006Z,23.81
2019-06-26T09:54:08.996Z,23.73
2019-06-26T09:55:08.985Z,23.63
2019-06-26T09:56:09.078Z,23.81
2019-06-26T09:57:08.968Z,23.82
2019-06-26T09:58:08.960Z,23.73
2019-06-26T09:59:09.004Z,23.82
2019-06-26T10:00:08.981Z,23.81
2019-06-26T10:01:08.933Z,23.81
2019-06-26T10:02:08.935Z,23.42
2019-06-26T10:03:08.932Z,23.54
2019-06-26T10:04:08.908Z,23.63
2019-06-26T10:05:08.894Z,24.79
2019-06-26T10:06:08.888Z,24.70
2019-06-26T10:07:08.877Z,24.42
2019-06-26T10:08:08.872Z,23.93
2019-06-26T10:09:08.865Z,25.06
2019-06-26T10:10:08.859Z,23.73
2019-06-26T10:11:08.843Z,23.91
2019-06-26T10:12:08.859Z,24.62
2019-06-26T10:13:08.827Z,25.44
2019-06-26T10:14:08.819Z,27.10
2019-06-26T10:15:08.821Z,27.19
2019-06-26T10:16:08.809Z,26.49
2019-06-26T10:17:08.793Z,25.04
2019-06-26T10:18:08.785Z,25.31
2019-06-26T10:19:10.710Z,25.67
2019-06-26T10:20:08.768Z,24.89
2019-06-26T10:21:08.762Z,24.21
2019-06-26T10:22:08.763Z,24.77
2019-06-26T10:23:08.746Z,23.44
2019-06-26T10:24:08.736Z,24.49
2019-06-26T10:25:11.231Z,23.81
2019-06-26T10:26:08.717Z,24.19
2019-06-26T10:27:08.713Z,24.19
2019-06-26T10:28:08.702Z,24.01
2019-06-26T10:29:08.698Z,23.63
2019-06-26T10:30:08.687Z,23.82
2019-06-26T10:31:08.673Z,24.77
2019-06-26T10:32:08.677Z,24.50
2019-06-26T10:33:08.655Z,24.21
2019-06-26T10:34:10.172Z,24.50
2019-06-26T10:35:08.642Z,24.21
2019-06-26T10:36:08.651Z,24.69
2019-06-26T10:37:08.622Z,24.40
2019-06-26T10:38:08.621Z,24.20
2019-06-26T10:39:08.604Z,24.49
2019-06-26T10:40:08.597Z,24.29
2019-06-26T10:41:08.587Z,24.38
2019-06-26T10:42:08.582Z,25.03
2019-06-26T10:43:08.576Z,23.80
2019-06-26T10:44:08.570Z,23.99
2019-06-26T10:45:08.563Z,23.99
2019-06-26T10:46:08.543Z,23.61
2019-06-26T10:47:08.541Z,23.80
2019-06-26T10:48:08.534Z,23.79
2019-06-26T10:49:08.522Z,23.79
2019-06-26T10:50:08.513Z,23.99
2019-06-26T10:51:08.500Z,23.51
2019-06-26T10:52:08.493Z,23.33
2019-06-26T10:53:08.482Z,23.62
2019-06-26T10:54:08.477Z,24.01
2019-06-26T10:55:08.467Z,24.12
2019-06-26T10:56:08.460Z,23.74
2019-06-26T10:57:08.455Z,23.93
2019-06-26T10:58:08.449Z,23.91
2019-06-26T10:59:08.440Z,23.82
2019-06-26T11:00:08.424Z,23.54
2019-06-26T11:01:08.416Z,23.63
2019-06-26T11:02:08.433Z,23.81
2019-06-26T11:03:08.401Z,23.81
2019-06-26T11:04:08.399Z,23.61
2019-06-26T11:05:08.386Z,23.61
2019-06-26T11:06:08.383Z,23.60
2019-06-26T11:07:08.365Z,23.61
2019-06-26T11:08:08.363Z,23.32
2019-06-26T11:09:08.351Z,23.13
2019-06-26T11:10:08.348Z,22.94
2019-06-26T11:11:08.331Z,22.85
2019-06-26T11:12:08.322Z,22.93
2019-06-26T11:13:08.317Z,23.22
2019-06-26T11:14:08.306Z,22.74
2019-06-26T11:15:08.324Z,23.41
2019-06-26T11:16:08.302Z,23.31
2019-06-26T11:17:08.291Z,23.42
2019-06-26T11:18:08.273Z,23.31
2019-06-26T11:19:08.326Z,23.11
2019-06-26T11:20:08.257Z,22.83
2019-06-26T11:21:08.247Z,22.07
2019-06-26T11:22:08.247Z,21.31
2019-06-26T11:23:08.229Z,21.99
2019-06-26T11:24:08.220Z,22.27
2019-06-26T11:25:08.222Z,22.76
2019-06-26T11:26:08.229Z,22.93
2019-06-26T11:27:08.259Z,22.93
2019-06-26T11:28:08.231Z,22.55
2019-06-26T11:29:08.232Z,22.27
2019-06-26T11:30:08.178Z,22.18
2019-06-26T11:31:08.193Z,22.18
2019-06-26T11:32:09.630Z,22.18
2019-06-26T11:33:08.187Z,22.19
2019-06-26T11:34:08.187Z,23.36
2019-06-26T11:35:08.129Z,23.08
2019-06-26T11:36:08.129Z,23.96
2019-06-26T11:37:08.114Z,23.79
2019-06-26T11:38:08.114Z,24.16
2019-06-26T11:39:08.114Z,24.26
2019-06-26T11:40:08.089Z,24.18
2019-06-26T11:41:08.075Z,24.48
2019-06-26T11:42:08.072Z,24.56
2019-06-26T11:43:08.267Z,24.36
2019-06-26T11:44:08.062Z,24.15
2019-06-26T11:45:08.039Z,23.87
2019-06-26T11:46:08.050Z,24.06
2019-06-26T11:47:08.025Z,23.68
2019-06-26T11:48:08.020Z,23.87
2019-06-26T11:49:08.002Z,23.87
2019-06-26T11:50:07.996Z,23.59
2019-06-26T11:51:07.983Z,23.49
2019-06-26T11:52:07.973Z,23.77
2019-06-26T11:53:07.966Z,23.68
2019-06-26T11:54:07.955Z,23.41
2019-06-26T11:55:07.945Z,24.65
2019-06-26T11:56:08.185Z,23.81
2019-06-26T11:57:07.930Z,24.11
2019-06-26T11:58:07.922Z,24.41
2019-06-26T11:59:07.911Z,25.07
2019-06-26T12:00:07.906Z,25.67
2019-06-26T12:01:07.899Z,25.78
2019-06-26T12:02:07.908Z,25.70
2019-06-26T12:03:07.884Z,26.76
2019-06-26T12:04:07.871Z,26.28
2019-06-26T12:05:07.865Z,26.19
2019-06-26T12:06:18.255Z,26.39
2019-06-26T12:07:32.323Z,26.31
2019-06-26T12:08:32.303Z,26.50
2019-06-26T12:09:32.301Z,26.02
2019-06-26T12:10:32.287Z,26.40
2019-06-26T12:11:32.283Z,26.22
2019-06-26T12:12:32.273Z,26.12
2019-06-26T12:13:33.490Z,26.39
2019-06-26T12:14:32.247Z,26.58
2019-06-26T12:15:34.236Z,26.20
2019-06-26T12:16:32.231Z,26.22
2019-06-26T12:17:32.222Z,27.28
2019-06-26T12:18:32.217Z,26.88
2019-06-26T12:19:32.202Z,26.20
2019-06-26T12:20:32.269Z,26.01
2019-06-26T12:21:32.186Z,26.01
2019-06-26T12:22:32.178Z,26.31
2019-06-26T12:23:32.169Z,26.40
2019-06-26T12:24:32.154Z,26.49
2019-06-26T12:25:32.143Z,26.20
2019-06-26T12:26:32.136Z,26.28
2019-06-26T12:27:32.167Z,26.30
2019-06-26T12:28:32.115Z,26.09
2019-06-26T12:29:33.069Z,26.47
2019-06-26T12:30:32.098Z,26.19
2019-06-26T12:31:32.089Z,26.20
2019-06-26T12:32:41.444Z,27.17
2019-06-26T12:33:56.541Z,26.88
2019-06-26T12:34:56.539Z,26.80
2019-06-26T12:35:56.530Z,27.28
2019-06-26T12:36:56.513Z,26.70
2019-06-26T12:37:56.533Z,27.28
2019-06-26T12:38:56.497Z,26.99
2019-06-26T12:39:56.483Z,26.91
2019-06-26T12:40:56.476Z,27.21
2019-06-26T12:41:56.466Z,27.41
2019-06-26T12:42:56.455Z,27.31
2019-06-26T12:43:56.451Z,27.50
2019-06-26T12:44:56.504Z,27.78
2019-06-26T12:45:56.445Z,26.91
2019-06-26T12:46:56.444Z,26.83
2019-06-26T12:47:56.409Z,27.49
2019-06-26T12:48:56.408Z,27.98
2019-06-26T12:49:56.393Z,27.88
2019-06-26T12:50:56.388Z,27.60
2019-06-26T12:51:56.377Z,27.88
2019-06-26T12:52:56.363Z,27.78
2019-06-26T12:53:58.478Z,27.98
2019-06-26T12:54:56.345Z,27.80
2019-06-26T12:55:56.335Z,27.80
2019-06-26T12:56:56.325Z,27.70
2019-06-26T12:58:11.647Z,27.72
2019-06-26T12:58:59.779Z,28.10
2019-06-26T12:59:57.894Z,28.97
2019-06-26T13:00:56.297Z,28.68
2019-06-26T13:01:56.282Z,28.97
2019-06-26T13:02:56.305Z,29.06
2019-06-26T13:03:56.261Z,28.97
2019-06-26T13:04:56.253Z,28.68
2019-06-26T13:05:56.244Z,28.97
2019-06-26T13:06:58.930Z,29.26
2019-06-26T13:07:56.225Z,28.97
2019-06-26T13:08:56.214Z,29.26
2019-06-26T13:09:56.212Z,29.35
2019-06-26T13:10:56.195Z,29.26
2019-06-26T13:11:56.188Z,29.16
2019-06-26T13:12:56.196Z,29.06
2019-06-26T13:14:02.738Z,28.97
2019-06-26T13:15:20.644Z,29.84
2019-06-26T13:16:20.646Z,29.27
2019-06-26T13:17:20.612Z,28.79
2019-06-26T13:18:20.644Z,29.08
2019-06-26T13:19:20.602Z,29.66
2019-06-26T13:20:20.614Z,29.27
2019-06-26T13:21:20.573Z,29.38
2019-06-26T13:22:20.570Z,29.65
2019-06-26T13:23:20.597Z,28.69
2019-06-26T13:24:20.559Z,29.27
2019-06-26T13:25:20.535Z,28.99
2019-06-26T13:26:20.526Z,29.08
2019-06-26T13:27:20.543Z,28.69
2019-06-26T13:28:20.525Z,29.37
2019-06-26T13:29:20.500Z,29.65
2019-06-26T13:30:20.486Z,29.47
2019-06-26T13:31:20.479Z,29.17
2019-06-26T13:32:20.471Z,29.19
2019-06-26T13:33:20.459Z,29.38
2019-06-26T13:34:20.449Z,29.96
2019-06-26T13:35:23.427Z,29.86
2019-06-26T13:36:20.441Z,29.66
2019-06-26T13:37:20.418Z,29.19
2019-06-26T13:38:20.414Z,29.87
2019-06-26T13:39:20.407Z,29.19
2019-06-26T13:40:20.396Z,29.09
2019-06-26T13:41:20.377Z,29.30
2019-06-26T13:42:20.378Z,29.20
2019-06-26T13:43:20.365Z,29.09
2019-06-26T13:44:20.350Z,29.68
2019-06-26T13:45:20.343Z,29.40
2019-06-26T13:46:20.332Z,29.30
2019-06-26T13:47:20.330Z,29.01
2019-06-26T13:48:20.313Z,29.49
2019-06-26T13:49:20.313Z,29.78
2019-06-26T13:50:20.293Z,29.58
2019-06-26T13:51:21.611Z,29.78
2019-06-26T13:52:20.269Z,30.16
2019-06-26T13:53:20.259Z,30.27
2019-06-26T13:54:20.253Z,29.89
2019-06-26T13:55:20.238Z,30.18
2019-06-26T13:56:20.232Z,30.08
2019-06-26T13:57:20.219Z,30.18
2019-06-26T13:58:20.209Z,29.99
2019-06-26T13:59:20.207Z,30.10
2019-06-26T14:00:20.189Z,30.01
2019-06-26T14:01:23.029Z,29.82
2019-06-26T14:02:20.170Z,29.73
2019-06-26T14:03:20.164Z,29.82
2019-06-26T14:04:20.153Z,30.49
2019-06-26T14:05:20.142Z,30.69
2019-06-26T14:06:20.128Z,30.98
2019-06-26T14:07:20.118Z,30.79
2019-06-26T14:08:20.108Z,30.80
2019-06-26T14:09:20.100Z,31.18
2019-06-26T14:10:20.088Z,30.32
2019-06-26T14:11:20.080Z,29.93
2019-06-26T14:12:20.068Z,30.60
2019-06-26T14:13:20.058Z,29.93
2019-06-26T14:14:20.510Z,30.03
2019-06-26T14:15:20.091Z,28.97
2019-06-26T14:16:20.144Z,30.03
2019-06-26T14:17:20.024Z,29.84
2019-06-26T14:18:20.012Z,30.03
2019-06-26T14:19:20.017Z,29.35
2019-06-26T14:20:19.995Z,28.88
2019-06-26T14:21:25.763Z,29.26
2019-06-26T14:22:44.450Z,29.55
2019-06-26T14:23:44.437Z,30.03
2019-06-26T14:24:44.430Z,31.18
2019-06-26T14:25:44.423Z,31.10
2019-06-26T14:26:44.410Z,31.68
2019-06-26T14:27:44.398Z,31.78
2019-06-26T14:28:44.388Z,31.97
2019-06-26T14:29:44.379Z,31.97
2019-06-26T14:30:44.401Z,32.36
2019-06-26T14:31:44.360Z,31.01
2019-06-26T14:32:44.348Z,30.91
2019-06-26T14:33:44.391Z,31.01
2019-06-26T14:34:44.332Z,31.39
2019-06-26T14:35:44.319Z,31.49
2019-06-26T14:36:44.309Z,31.20
2019-06-26T14:37:44.301Z,31.01
2019-06-26T14:38:44.297Z,31.39
2019-06-26T14:39:44.287Z,31.20
2019-06-26T14:40:44.272Z,31.01
2019-06-26T14:41:44.261Z,31.20
2019-06-26T14:42:44.254Z,31.20
2019-06-26T14:43:44.242Z,31.10
2019-06-26T14:44:44.235Z,31.20
2019-06-26T14:45:44.231Z,31.01
2019-06-26T14:46:44.217Z,31.41
2019-06-26T14:47:44.204Z,31.51
2019-06-26T14:48:44.193Z,31.79
2019-06-26T14:49:44.188Z,31.87
2019-06-26T14:50:44.274Z,32.55
2019-06-26T14:51:47.625Z,31.98
2019-06-26T14:52:45.963Z,31.79
2019-06-26T14:53:44.144Z,31.89
2019-06-26T14:54:44.136Z,31.59
2019-06-26T14:55:44.146Z,31.79
2019-06-26T14:56:44.116Z,32.64
2019-06-26T14:57:44.128Z,31.89
2019-06-26T14:58:44.095Z,32.68